sensor_id;sensor_type;location;lat;lon;timestamp;P1;durP1;ratioP1;P2;durP2;ratioP2
10725;SDS011;5414;59.782;16.378;2022-08-21T00:00:28;4.17;;;1.87;;
10725;SDS011;5414;59.782;16.378;2022-08-21T00:02:59;4.33;;;1.90;;
10725;SDS011;5414;59.782;16.378;2022-08-21T00:05:26;3.43;;;1.90;;
10725;SDS011;5414;59.782;16.378;2022-08-21T00:07:52;4.77;;;2.10;;
10725;SDS011;5414;59.782;16.378;2022-08-21T00:10:18;3.90;;;1.87;;
10725;SDS011;5414;59.782;16.378;2022-08-21T00:12:45;2.43;;;1.53;;
10725;SDS011;5414;59.782;16.378;2022-08-21T00:15:13;4.10;;;1.77;;
10725;SDS011;5414;59.782;16.378;2022-08-21T00:17:40;3.00;;;1.70;;
10725;SDS011;5414;59.782;16.378;2022-08-21T00:20:07;4.90;;;1.90;;
10725;SDS011;5414;59.782;16.378;2022-08-21T00:22:35;5.83;;;2.00;;
10725;SDS011;5414;59.782;16.378;2022-08-21T00:25:02;4.07;;;1.80;;
10725;SDS011;5414;59.782;16.378;2022-08-21T00:27:29;4.27;;;2.07;;
10725;SDS011;5414;59.782;16.378;2022-08-21T00:29:55;4.13;;;2.03;;
10725;SDS011;5414;59.782;16.378;2022-08-21T00:32:23;4.10;;;2.23;;
10725;SDS011;5414;59.782;16.378;2022-08-21T00:34:49;4.03;;;2.00;;
10725;SDS011;5414;59.782;16.378;2022-08-21T00:37:15;5.50;;;1.80;;
10725;SDS011;5414;59.782;16.378;2022-08-21T00:39:41;5.00;;;1.97;;
10725;SDS011;5414;59.782;16.378;2022-08-21T00:42:08;7.13;;;2.43;;
10725;SDS011;5414;59.782;16.378;2022-08-21T00:44:34;5.47;;;2.20;;
10725;SDS011;5414;59.782;16.378;2022-08-21T00:47:00;3.80;;;1.93;;
10725;SDS011;5414;59.782;16.378;2022-08-21T00:49:27;3.80;;;1.77;;
10725;SDS011;5414;59.782;16.378;2022-08-21T00:51:54;3.27;;;1.73;;
10725;SDS011;5414;59.782;16.378;2022-08-21T00:54:22;3.43;;;1.70;;
10725;SDS011;5414;59.782;16.378;2022-08-21T00:56:50;6.10;;;1.87;;
10725;SDS011;5414;59.782;16.378;2022-08-21T00:59:19;3.57;;;2.00;;
10725;SDS011;5414;59.782;16.378;2022-08-21T01:01:45;3.17;;;1.67;;
10725;SDS011;5414;59.782;16.378;2022-08-21T01:04:12;3.20;;;2.00;;
10725;SDS011;5414;59.782;16.378;2022-08-21T01:06:38;4.77;;;1.87;;
10725;SDS011;5414;59.782;16.378;2022-08-21T01:09:04;4.53;;;1.90;;
10725;SDS011;5414;59.782;16.378;2022-08-21T01:11:30;4.37;;;2.10;;
10725;SDS011;5414;59.782;16.378;2022-08-21T01:13:56;3.90;;;2.10;;
10725;SDS011;5414;59.782;16.378;2022-08-21T01:16:22;4.00;;;2.10;;
10725;SDS011;5414;59.782;16.378;2022-08-21T01:18:49;3.50;;;2.10;;
10725;SDS011;5414;59.782;16.378;2022-08-21T01:21:17;5.47;;;2.03;;
10725;SDS011;5414;59.782;16.378;2022-08-21T01:23:46;5.17;;;2.20;;
10725;SDS011;5414;59.782;16.378;2022-08-21T01:26:15;5.77;;;2.10;;
10725;SDS011;5414;59.782;16.378;2022-08-21T01:28:59;4.13;;;2.10;;
10725;SDS011;5414;59.782;16.378;2022-08-21T01:31:26;4.77;;;2.07;;
10725;SDS011;5414;59.782;16.378;2022-08-21T01:33:54;4.47;;;2.43;;
10725;SDS011;5414;59.782;16.378;2022-08-21T01:36:21;3.27;;;1.93;;
10725;SDS011;5414;59.782;16.378;2022-08-21T01:38:47;7.97;;;2.50;;
10725;SDS011;5414;59.782;16.378;2022-08-21T01:41:14;4.63;;;2.20;;
10725;SDS011;5414;59.782;16.378;2022-08-21T01:43:41;7.43;;;2.60;;
10725;SDS011;5414;59.782;16.378;2022-08-21T01:46:07;3.57;;;2.00;;
10725;SDS011;5414;59.782;16.378;2022-08-21T01:48:34;3.53;;;2.00;;
10725;SDS011;5414;59.782;16.378;2022-08-21T01:51:00;4.17;;;1.97;;
10725;SDS011;5414;59.782;16.378;2022-08-21T01:53:26;4.20;;;2.17;;
10725;SDS011;5414;59.782;16.378;2022-08-21T01:55:52;4.93;;;2.37;;
10725;SDS011;5414;59.782;16.378;2022-08-21T01:58:18;4.10;;;2.20;;
10725;SDS011;5414;59.782;16.378;2022-08-21T02:00:45;4.17;;;2.40;;
10725;SDS011;5414;59.782;16.378;2022-08-21T02:03:11;5.77;;;2.30;;
10725;SDS011;5414;59.782;16.378;2022-08-21T02:05:37;2.97;;;1.80;;
10725;SDS011;5414;59.782;16.378;2022-08-21T02:08:05;5.03;;;2.27;;
10725;SDS011;5414;59.782;16.378;2022-08-21T02:10:31;6.17;;;2.40;;
10725;SDS011;5414;59.782;16.378;2022-08-21T02:12:58;4.87;;;2.33;;
10725;SDS011;5414;59.782;16.378;2022-08-21T02:15:25;3.33;;;2.43;;
10725;SDS011;5414;59.782;16.378;2022-08-21T02:17:52;5.37;;;2.30;;
10725;SDS011;5414;59.782;16.378;2022-08-21T02:20:27;6.87;;;2.37;;
10725;SDS011;5414;59.782;16.378;2022-08-21T02:22:53;3.57;;;2.40;;
10725;SDS011;5414;59.782;16.378;2022-08-21T02:25:20;4.90;;;2.67;;
10725;SDS011;5414;59.782;16.378;2022-08-21T02:27:47;4.33;;;2.60;;
10725;SDS011;5414;59.782;16.378;2022-08-21T02:30:18;4.70;;;2.60;;
10725;SDS011;5414;59.782;16.378;2022-08-21T02:32:44;5.77;;;2.20;;
10725;SDS011;5414;59.782;16.378;2022-08-21T02:35:10;6.07;;;2.27;;
10725;SDS011;5414;59.782;16.378;2022-08-21T02:37:47;7.40;;;2.33;;
10725;SDS011;5414;59.782;16.378;2022-08-21T02:40:14;4.13;;;2.07;;
10725;SDS011;5414;59.782;16.378;2022-08-21T02:42:41;4.60;;;2.17;;
10725;SDS011;5414;59.782;16.378;2022-08-21T02:45:08;3.97;;;2.30;;
10725;SDS011;5414;59.782;16.378;2022-08-21T02:47:35;2.67;;;1.97;;
10725;SDS011;5414;59.782;16.378;2022-08-21T02:50:01;5.83;;;2.60;;
10725;SDS011;5414;59.782;16.378;2022-08-21T02:52:27;5.77;;;2.47;;
10725;SDS011;5414;59.782;16.378;2022-08-21T02:54:54;4.97;;;2.37;;
10725;SDS011;5414;59.782;16.378;2022-08-21T02:57:20;4.60;;;2.20;;
10725;SDS011;5414;59.782;16.378;2022-08-21T02:59:46;2.30;;;2.00;;
10725;SDS011;5414;59.782;16.378;2022-08-21T03:02:12;4.93;;;2.20;;
10725;SDS011;5414;59.782;16.378;2022-08-21T03:04:38;3.90;;;2.30;;
10725;SDS011;5414;59.782;16.378;2022-08-21T03:07:04;4.07;;;2.20;;
10725;SDS011;5414;59.782;16.378;2022-08-21T03:09:30;4.70;;;2.17;;
10725;SDS011;5414;59.782;16.378;2022-08-21T03:11:56;4.80;;;2.30;;
10725;SDS011;5414;59.782;16.378;2022-08-21T03:14:22;3.73;;;2.30;;
10725;SDS011;5414;59.782;16.378;2022-08-21T03:16:48;3.10;;;2.30;;
10725;SDS011;5414;59.782;16.378;2022-08-21T03:19:14;7.03;;;2.70;;
10725;SDS011;5414;59.782;16.378;2022-08-21T03:21:40;3.10;;;1.93;;
10725;SDS011;5414;59.782;16.378;2022-08-21T03:24:07;5.17;;;2.40;;
10725;SDS011;5414;59.782;16.378;2022-08-21T03:26:34;5.63;;;2.00;;
10725;SDS011;5414;59.782;16.378;2022-08-21T03:29:00;4.37;;;2.40;;
10725;SDS011;5414;59.782;16.378;2022-08-21T03:31:27;6.50;;;2.70;;
10725;SDS011;5414;59.782;16.378;2022-08-21T03:33:56;4.27;;;2.60;;
10725;SDS011;5414;59.782;16.378;2022-08-21T03:36:22;6.87;;;2.80;;
10725;SDS011;5414;59.782;16.378;2022-08-21T03:38:48;5.73;;;2.43;;
10725;SDS011;5414;59.782;16.378;2022-08-21T03:41:15;4.77;;;2.30;;
10725;SDS011;5414;59.782;16.378;2022-08-21T03:43:41;4.10;;;2.00;;
10725;SDS011;5414;59.782;16.378;2022-08-21T03:46:07;5.10;;;2.50;;
10725;SDS011;5414;59.782;16.378;2022-08-21T03:48:34;5.07;;;2.40;;
10725;SDS011;5414;59.782;16.378;2022-08-21T03:51:00;5.37;;;2.27;;
10725;SDS011;5414;59.782;16.378;2022-08-21T03:53:28;5.30;;;2.43;;
10725;SDS011;5414;59.782;16.378;2022-08-21T03:55:55;4.13;;;2.60;;
10725;SDS011;5414;59.782;16.378;2022-08-21T03:58:23;4.80;;;2.50;;
10725;SDS011;5414;59.782;16.378;2022-08-21T04:00:50;6.57;;;2.73;;
10725;SDS011;5414;59.782;16.378;2022-08-21T04:03:16;5.03;;;2.63;;
10725;SDS011;5414;59.782;16.378;2022-08-21T04:05:43;4.07;;;2.43;;
10725;SDS011;5414;59.782;16.378;2022-08-21T04:08:10;5.50;;;2.40;;
10725;SDS011;5414;59.782;16.378;2022-08-21T04:10:37;5.13;;;2.57;;
10725;SDS011;5414;59.782;16.378;2022-08-21T04:13:04;6.20;;;2.70;;
10725;SDS011;5414;59.782;16.378;2022-08-21T04:15:30;5.70;;;2.40;;
10725;SDS011;5414;59.782;16.378;2022-08-21T04:17:56;4.63;;;2.77;;
10725;SDS011;5414;59.782;16.378;2022-08-21T04:20:23;5.47;;;2.50;;
10725;SDS011;5414;59.782;16.378;2022-08-21T04:22:51;3.97;;;2.50;;
10725;SDS011;5414;59.782;16.378;2022-08-21T04:25:18;4.80;;;2.60;;
10725;SDS011;5414;59.782;16.378;2022-08-21T04:27:44;4.70;;;2.60;;
10725;SDS011;5414;59.782;16.378;2022-08-21T04:30:11;4.53;;;2.40;;
10725;SDS011;5414;59.782;16.378;2022-08-21T04:32:38;2.93;;;2.27;;
10725;SDS011;5414;59.782;16.378;2022-08-21T04:35:05;3.73;;;2.40;;
10725;SDS011;5414;59.782;16.378;2022-08-21T04:37:31;5.17;;;2.60;;
10725;SDS011;5414;59.782;16.378;2022-08-21T04:39:58;8.17;;;3.20;;
10725;SDS011;5414;59.782;16.378;2022-08-21T04:42:24;8.33;;;3.13;;
10725;SDS011;5414;59.782;16.378;2022-08-21T04:44:51;5.70;;;3.10;;
10725;SDS011;5414;59.782;16.378;2022-08-21T04:47:17;7.13;;;3.40;;
10725;SDS011;5414;59.782;16.378;2022-08-21T04:49:43;6.63;;;3.70;;
10725;SDS011;5414;59.782;16.378;2022-08-21T04:52:10;6.23;;;3.33;;
10725;SDS011;5414;59.782;16.378;2022-08-21T04:54:37;6.47;;;3.60;;
10725;SDS011;5414;59.782;16.378;2022-08-21T04:57:04;7.60;;;3.70;;
10725;SDS011;5414;59.782;16.378;2022-08-21T04:59:33;6.33;;;3.20;;
10725;SDS011;5414;59.782;16.378;2022-08-21T05:02:01;6.37;;;3.40;;
10725;SDS011;5414;59.782;16.378;2022-08-21T05:04:29;8.47;;;3.80;;
10725;SDS011;5414;59.782;16.378;2022-08-21T05:06:56;7.27;;;3.40;;
10725;SDS011;5414;59.782;16.378;2022-08-21T05:09:24;8.33;;;3.37;;
10725;SDS011;5414;59.782;16.378;2022-08-21T05:11:50;8.53;;;4.00;;
10725;SDS011;5414;59.782;16.378;2022-08-21T05:14:17;6.20;;;3.13;;
10725;SDS011;5414;59.782;16.378;2022-08-21T05:16:44;5.20;;;3.23;;
10725;SDS011;5414;59.782;16.378;2022-08-21T05:19:10;10.47;;;3.70;;
10725;SDS011;5414;59.782;16.378;2022-08-21T05:21:38;9.90;;;4.10;;
10725;SDS011;5414;59.782;16.378;2022-08-21T05:24:06;6.87;;;3.40;;
10725;SDS011;5414;59.782;16.378;2022-08-21T05:26:32;7.20;;;3.20;;
10725;SDS011;5414;59.782;16.378;2022-08-21T05:28:58;8.40;;;3.30;;
10725;SDS011;5414;59.782;16.378;2022-08-21T05:31:24;8.03;;;3.40;;
10725;SDS011;5414;59.782;16.378;2022-08-21T05:33:50;6.87;;;3.50;;
10725;SDS011;5414;59.782;16.378;2022-08-21T05:36:17;9.70;;;3.33;;
10725;SDS011;5414;59.782;16.378;2022-08-21T05:38:43;5.60;;;3.07;;
10725;SDS011;5414;59.782;16.378;2022-08-21T05:41:09;9.83;;;3.47;;
10725;SDS011;5414;59.782;16.378;2022-08-21T05:43:35;8.30;;;3.57;;
10725;SDS011;5414;59.782;16.378;2022-08-21T05:46:05;7.77;;;3.23;;
10725;SDS011;5414;59.782;16.378;2022-08-21T05:48:31;7.07;;;3.40;;
10725;SDS011;5414;59.782;16.378;2022-08-21T05:50:57;5.60;;;2.97;;
10725;SDS011;5414;59.782;16.378;2022-08-21T05:53:24;5.23;;;3.00;;
10725;SDS011;5414;59.782;16.378;2022-08-21T05:55:51;4.73;;;3.20;;
10725;SDS011;5414;59.782;16.378;2022-08-21T05:58:18;6.80;;;2.90;;
10725;SDS011;5414;59.782;16.378;2022-08-21T06:00:45;7.87;;;3.47;;
10725;SDS011;5414;59.782;16.378;2022-08-21T06:03:23;6.13;;;3.00;;
10725;SDS011;5414;59.782;16.378;2022-08-21T06:05:49;6.53;;;3.43;;
10725;SDS011;5414;59.782;16.378;2022-08-21T06:08:16;8.07;;;4.00;;
10725;SDS011;5414;59.782;16.378;2022-08-21T06:10:43;8.20;;;3.30;;
10725;SDS011;5414;59.782;16.378;2022-08-21T06:13:09;5.13;;;3.03;;
10725;SDS011;5414;59.782;16.378;2022-08-21T06:15:37;7.03;;;3.23;;
10725;SDS011;5414;59.782;16.378;2022-08-21T06:18:03;7.30;;;3.20;;
10725;SDS011;5414;59.782;16.378;2022-08-21T06:20:29;5.13;;;2.80;;
10725;SDS011;5414;59.782;16.378;2022-08-21T06:22:56;6.07;;;3.20;;
10725;SDS011;5414;59.782;16.378;2022-08-21T06:25:22;8.23;;;3.30;;
10725;SDS011;5414;59.782;16.378;2022-08-21T06:27:50;7.17;;;3.03;;
10725;SDS011;5414;59.782;16.378;2022-08-21T06:30:17;8.57;;;3.40;;
10725;SDS011;5414;59.782;16.378;2022-08-21T06:32:43;6.47;;;2.90;;
10725;SDS011;5414;59.782;16.378;2022-08-21T06:35:09;6.80;;;3.10;;
10725;SDS011;5414;59.782;16.378;2022-08-21T06:37:37;5.53;;;3.03;;
10725;SDS011;5414;59.782;16.378;2022-08-21T06:40:04;4.23;;;2.30;;
10725;SDS011;5414;59.782;16.378;2022-08-21T06:42:31;6.70;;;2.93;;
10725;SDS011;5414;59.782;16.378;2022-08-21T06:44:57;7.63;;;3.03;;
10725;SDS011;5414;59.782;16.378;2022-08-21T06:47:23;6.30;;;2.93;;
10725;SDS011;5414;59.782;16.378;2022-08-21T06:49:49;5.53;;;2.70;;
10725;SDS011;5414;59.782;16.378;2022-08-21T06:52:15;5.90;;;2.63;;
10725;SDS011;5414;59.782;16.378;2022-08-21T06:54:42;7.70;;;3.03;;
10725;SDS011;5414;59.782;16.378;2022-08-21T06:57:08;7.57;;;2.80;;
10725;SDS011;5414;59.782;16.378;2022-08-21T06:59:34;5.27;;;2.33;;
10725;SDS011;5414;59.782;16.378;2022-08-21T07:02:00;5.37;;;2.47;;
10725;SDS011;5414;59.782;16.378;2022-08-21T07:04:28;5.80;;;2.90;;
10725;SDS011;5414;59.782;16.378;2022-08-21T07:06:54;6.23;;;2.53;;
10725;SDS011;5414;59.782;16.378;2022-08-21T07:09:20;5.23;;;2.73;;
10725;SDS011;5414;59.782;16.378;2022-08-21T07:11:47;3.57;;;2.30;;
10725;SDS011;5414;59.782;16.378;2022-08-21T07:14:15;7.87;;;2.30;;
10725;SDS011;5414;59.782;16.378;2022-08-21T07:16:41;6.33;;;2.70;;
10725;SDS011;5414;59.782;16.378;2022-08-21T07:19:07;4.23;;;2.40;;
10725;SDS011;5414;59.782;16.378;2022-08-21T07:21:33;4.60;;;2.67;;
10725;SDS011;5414;59.782;16.378;2022-08-21T07:24:00;3.87;;;2.40;;
10725;SDS011;5414;59.782;16.378;2022-08-21T07:26:28;5.17;;;2.53;;
10725;SDS011;5414;59.782;16.378;2022-08-21T07:28:54;7.37;;;2.50;;
10725;SDS011;5414;59.782;16.378;2022-08-21T07:31:20;6.93;;;3.00;;
10725;SDS011;5414;59.782;16.378;2022-08-21T07:33:47;6.97;;;2.70;;
10725;SDS011;5414;59.782;16.378;2022-08-21T07:36:13;7.83;;;2.80;;
10725;SDS011;5414;59.782;16.378;2022-08-21T07:38:39;5.60;;;2.20;;
10725;SDS011;5414;59.782;16.378;2022-08-21T07:41:16;5.93;;;2.73;;
10725;SDS011;5414;59.782;16.378;2022-08-21T07:43:43;5.00;;;2.17;;
10725;SDS011;5414;59.782;16.378;2022-08-21T07:46:09;3.80;;;2.07;;
10725;SDS011;5414;59.782;16.378;2022-08-21T07:48:37;5.47;;;2.20;;
10725;SDS011;5414;59.782;16.378;2022-08-21T07:51:05;8.57;;;2.70;;
10725;SDS011;5414;59.782;16.378;2022-08-21T07:53:32;4.03;;;2.33;;
10725;SDS011;5414;59.782;16.378;2022-08-21T07:55:58;8.63;;;2.60;;
10725;SDS011;5414;59.782;16.378;2022-08-21T07:58:24;3.70;;;2.20;;
10725;SDS011;5414;59.782;16.378;2022-08-21T08:00:50;5.53;;;2.30;;
10725;SDS011;5414;59.782;16.378;2022-08-21T08:03:16;5.13;;;2.60;;
10725;SDS011;5414;59.782;16.378;2022-08-21T08:05:42;6.47;;;2.30;;
10725;SDS011;5414;59.782;16.378;2022-08-21T08:08:08;5.07;;;2.30;;
10725;SDS011;5414;59.782;16.378;2022-08-21T08:10:35;4.37;;;1.97;;
10725;SDS011;5414;59.782;16.378;2022-08-21T08:13:01;2.93;;;1.83;;
10725;SDS011;5414;59.782;16.378;2022-08-21T08:15:27;4.67;;;2.20;;
10725;SDS011;5414;59.782;16.378;2022-08-21T08:17:54;5.00;;;2.20;;
10725;SDS011;5414;59.782;16.378;2022-08-21T08:20:20;4.67;;;2.07;;
10725;SDS011;5414;59.782;16.378;2022-08-21T08:22:47;5.80;;;2.20;;
10725;SDS011;5414;59.782;16.378;2022-08-21T08:25:14;4.37;;;2.13;;
10725;SDS011;5414;59.782;16.378;2022-08-21T08:27:40;4.57;;;1.93;;
10725;SDS011;5414;59.782;16.378;2022-08-21T08:30:07;4.50;;;2.20;;
10725;SDS011;5414;59.782;16.378;2022-08-21T08:32:34;4.93;;;1.97;;
10725;SDS011;5414;59.782;16.378;2022-08-21T08:35:01;4.57;;;1.97;;
10725;SDS011;5414;59.782;16.378;2022-08-21T08:37:27;4.10;;;2.00;;
10725;SDS011;5414;59.782;16.378;2022-08-21T08:39:53;6.53;;;2.10;;
10725;SDS011;5414;59.782;16.378;2022-08-21T08:42:29;4.60;;;1.97;;
10725;SDS011;5414;59.782;16.378;2022-08-21T08:45:10;4.03;;;2.00;;
10725;SDS011;5414;59.782;16.378;2022-08-21T08:47:38;3.80;;;2.13;;
10725;SDS011;5414;59.782;16.378;2022-08-21T08:53:12;3.57;;;1.63;;
10725;SDS011;5414;59.782;16.378;2022-08-21T08:55:38;3.40;;;1.90;;
10725;SDS011;5414;59.782;16.378;2022-08-21T08:58:05;3.00;;;1.60;;
10725;SDS011;5414;59.782;16.378;2022-08-21T09:00:31;4.67;;;1.70;;
10725;SDS011;5414;59.782;16.378;2022-08-21T09:02:59;4.70;;;1.90;;
10725;SDS011;5414;59.782;16.378;2022-08-21T09:05:27;3.63;;;1.53;;
10725;SDS011;5414;59.782;16.378;2022-08-21T09:07:59;2.80;;;1.60;;
10725;SDS011;5414;59.782;16.378;2022-08-21T09:13:07;3.00;;;2.00;;
10725;SDS011;5414;59.782;16.378;2022-08-21T09:21:11;4.10;;;1.97;;
10725;SDS011;5414;59.782;16.378;2022-08-21T09:26:20;3.10;;;1.80;;
10725;SDS011;5414;59.782;16.378;2022-08-21T09:28:52;4.50;;;2.07;;
10725;SDS011;5414;59.782;16.378;2022-08-21T09:31:23;5.30;;;1.93;;
10725;SDS011;5414;59.782;16.378;2022-08-21T09:33:56;4.27;;;1.87;;
10725;SDS011;5414;59.782;16.378;2022-08-21T09:36:41;4.47;;;1.70;;
10725;SDS011;5414;59.782;16.378;2022-08-21T09:39:08;4.53;;;2.00;;
10725;SDS011;5414;59.782;16.378;2022-08-21T09:41:35;4.67;;;1.90;;
10725;SDS011;5414;59.782;16.378;2022-08-21T09:44:02;3.00;;;1.90;;
10725;SDS011;5414;59.782;16.378;2022-08-21T09:46:29;2.20;;;1.50;;
10725;SDS011;5414;59.782;16.378;2022-08-21T09:48:57;3.57;;;1.77;;
10725;SDS011;5414;59.782;16.378;2022-08-21T09:51:25;2.87;;;1.60;;
10725;SDS011;5414;59.782;16.378;2022-08-21T09:56:58;3.83;;;1.90;;
10725;SDS011;5414;59.782;16.378;2022-08-21T09:59:43;5.13;;;2.00;;
10725;SDS011;5414;59.782;16.378;2022-08-21T10:02:21;2.43;;;1.33;;
10725;SDS011;5414;59.782;16.378;2022-08-21T10:04:51;2.80;;;1.57;;
10725;SDS011;5414;59.782;16.378;2022-08-21T10:07:19;4.00;;;1.70;;
10725;SDS011;5414;59.782;16.378;2022-08-21T10:09:46;2.50;;;1.63;;
10725;SDS011;5414;59.782;16.378;2022-08-21T10:12:25;4.93;;;2.10;;
10725;SDS011;5414;59.782;16.378;2022-08-21T10:20:33;3.93;;;2.27;;
10725;SDS011;5414;59.782;16.378;2022-08-21T10:28:05;4.77;;;1.90;;
10725;SDS011;5414;59.782;16.378;2022-08-21T10:46:54;5.70;;;2.20;;
10725;SDS011;5414;59.782;16.378;2022-08-21T10:56:40;3.47;;;1.93;;
10725;SDS011;5414;59.782;16.378;2022-08-21T11:04:23;2.63;;;1.50;;
10725;SDS011;5414;59.782;16.378;2022-08-21T11:07:00;3.70;;;1.67;;
10725;SDS011;5414;59.782;16.378;2022-08-21T11:09:28;3.50;;;1.80;;
10725;SDS011;5414;59.782;16.378;2022-08-21T11:11:59;2.93;;;1.57;;
10725;SDS011;5414;59.782;16.378;2022-08-21T11:17:14;3.00;;;1.77;;
10725;SDS011;5414;59.782;16.378;2022-08-21T11:19:45;2.93;;;1.63;;
10725;SDS011;5414;59.782;16.378;2022-08-21T11:22:25;1.53;;;1.30;;
10725;SDS011;5414;59.782;16.378;2022-08-21T11:25:40;3.10;;;1.20;;
10725;SDS011;5414;59.782;16.378;2022-08-21T11:27:43;2.27;;;1.20;;
10725;SDS011;5414;59.782;16.378;2022-08-21T11:30:11;3.60;;;1.40;;
10725;SDS011;5414;59.782;16.378;2022-08-21T11:45:54;3.57;;;1.50;;
10725;SDS011;5414;59.782;16.378;2022-08-21T11:51:04;2.13;;;1.37;;
10725;SDS011;5414;59.782;16.378;2022-08-21T11:56:11;2.37;;;1.40;;
10725;SDS011;5414;59.782;16.378;2022-08-21T11:58:48;4.23;;;1.70;;
10725;SDS011;5414;59.782;16.378;2022-08-21T12:03:42;2.17;;;1.30;;
10725;SDS011;5414;59.782;16.378;2022-08-21T12:06:11;3.00;;;1.50;;
10725;SDS011;5414;59.782;16.378;2022-08-21T12:08:39;2.00;;;1.33;;
10725;SDS011;5414;59.782;16.378;2022-08-21T12:13:36;2.73;;;1.40;;
10725;SDS011;5414;59.782;16.378;2022-08-21T12:16:09;2.33;;;1.30;;
10725;SDS011;5414;59.782;16.378;2022-08-21T12:18:36;3.20;;;1.30;;
10725;SDS011;5414;59.782;16.378;2022-08-21T12:21:16;3.23;;;1.50;;
10725;SDS011;5414;59.782;16.378;2022-08-21T12:26:35;2.33;;;1.50;;
10725;SDS011;5414;59.782;16.378;2022-08-21T12:29:12;3.17;;;1.43;;
10725;SDS011;5414;59.782;16.378;2022-08-21T12:31:59;3.17;;;1.50;;
10725;SDS011;5414;59.782;16.378;2022-08-21T12:34:36;2.93;;;1.40;;
10725;SDS011;5414;59.782;16.378;2022-08-21T12:37:07;2.20;;;1.00;;
10725;SDS011;5414;59.782;16.378;2022-08-21T12:39:37;1.67;;;1.33;;
10725;SDS011;5414;59.782;16.378;2022-08-21T12:44:40;2.97;;;1.50;;
10725;SDS011;5414;59.782;16.378;2022-08-21T12:50:05;2.87;;;1.40;;
10725;SDS011;5414;59.782;16.378;2022-08-21T12:54:59;2.87;;;1.40;;
10725;SDS011;5414;59.782;16.378;2022-08-21T12:57:26;2.30;;;1.40;;
10725;SDS011;5414;59.782;16.378;2022-08-21T12:59:57;2.57;;;1.40;;
10725;SDS011;5414;59.782;16.378;2022-08-21T13:02:25;2.13;;;1.27;;
10725;SDS011;5414;59.782;16.378;2022-08-21T13:04:52;1.47;;;1.20;;
10725;SDS011;5414;59.782;16.378;2022-08-21T13:07:26;2.47;;;1.37;;
10725;SDS011;5414;59.782;16.378;2022-08-21T13:09:55;1.97;;;1.10;;
10725;SDS011;5414;59.782;16.378;2022-08-21T13:12:23;1.80;;;1.33;;
10725;SDS011;5414;59.782;16.378;2022-08-21T13:14:49;2.10;;;1.30;;
10725;SDS011;5414;59.782;16.378;2022-08-21T13:17:18;2.73;;;1.40;;
10725;SDS011;5414;59.782;16.378;2022-08-21T13:20:00;2.60;;;1.20;;
10725;SDS011;5414;59.782;16.378;2022-08-21T13:22:27;3.30;;;1.40;;
10725;SDS011;5414;59.782;16.378;2022-08-21T13:24:54;2.57;;;1.37;;
10725;SDS011;5414;59.782;16.378;2022-08-21T13:27:22;2.23;;;1.00;;
10725;SDS011;5414;59.782;16.378;2022-08-21T13:29:48;1.30;;;1.13;;
10725;SDS011;5414;59.782;16.378;2022-08-21T13:32:20;2.37;;;1.23;;
10725;SDS011;5414;59.782;16.378;2022-08-21T13:34:46;2.43;;;1.30;;
10725;SDS011;5414;59.782;16.378;2022-08-21T13:37:13;2.57;;;1.40;;
10725;SDS011;5414;59.782;16.378;2022-08-21T13:39:39;3.33;;;1.40;;
10725;SDS011;5414;59.782;16.378;2022-08-21T13:42:09;1.60;;;1.07;;
10725;SDS011;5414;59.782;16.378;2022-08-21T13:44:41;1.60;;;1.20;;
10725;SDS011;5414;59.782;16.378;2022-08-21T13:47:07;2.53;;;1.27;;
10725;SDS011;5414;59.782;16.378;2022-08-21T13:49:37;1.63;;;1.13;;
10725;SDS011;5414;59.782;16.378;2022-08-21T13:52:04;1.40;;;1.20;;
10725;SDS011;5414;59.782;16.378;2022-08-21T13:54:39;2.13;;;1.03;;
10725;SDS011;5414;59.782;16.378;2022-08-21T13:57:27;2.37;;;1.17;;
10725;SDS011;5414;59.782;16.378;2022-08-21T13:59:51;1.93;;;1.10;;
10725;SDS011;5414;59.782;16.378;2022-08-21T14:02:19;1.60;;;1.17;;
10725;SDS011;5414;59.782;16.378;2022-08-21T14:07:25;1.80;;;1.27;;
10725;SDS011;5414;59.782;16.378;2022-08-21T14:09:52;1.43;;;1.10;;
10725;SDS011;5414;59.782;16.378;2022-08-21T14:12:26;2.27;;;1.30;;
10725;SDS011;5414;59.782;16.378;2022-08-21T14:14:52;1.63;;;1.10;;
10725;SDS011;5414;59.782;16.378;2022-08-21T14:17:27;2.23;;;1.30;;
10725;SDS011;5414;59.782;16.378;2022-08-21T14:19:53;1.33;;;1.10;;
10725;SDS011;5414;59.782;16.378;2022-08-21T14:24:48;2.07;;;1.30;;
10725;SDS011;5414;59.782;16.378;2022-08-21T14:27:16;1.87;;;1.20;;
10725;SDS011;5414;59.782;16.378;2022-08-21T14:29:42;1.97;;;1.30;;
10725;SDS011;5414;59.782;16.378;2022-08-21T14:32:10;1.43;;;1.20;;
10725;SDS011;5414;59.782;16.378;2022-08-21T14:34:37;2.13;;;1.20;;
10725;SDS011;5414;59.782;16.378;2022-08-21T14:37:03;2.10;;;1.40;;
10725;SDS011;5414;59.782;16.378;2022-08-21T14:39:29;1.50;;;1.00;;
10725;SDS011;5414;59.782;16.378;2022-08-21T14:41:56;1.43;;;1.30;;
10725;SDS011;5414;59.782;16.378;2022-08-21T14:44:22;1.67;;;1.57;;
10725;SDS011;5414;59.782;16.378;2022-08-21T14:46:48;1.73;;;1.27;;
10725;SDS011;5414;59.782;16.378;2022-08-21T14:49:14;2.43;;;1.30;;
10725;SDS011;5414;59.782;16.378;2022-08-21T14:51:40;1.77;;;1.20;;
10725;SDS011;5414;59.782;16.378;2022-08-21T14:54:06;2.20;;;1.20;;
10725;SDS011;5414;59.782;16.378;2022-08-21T14:56:33;2.13;;;1.30;;
10725;SDS011;5414;59.782;16.378;2022-08-21T14:59:00;1.93;;;1.30;;
10725;SDS011;5414;59.782;16.378;2022-08-21T15:01:27;2.00;;;1.20;;
10725;SDS011;5414;59.782;16.378;2022-08-21T15:03:53;1.63;;;1.30;;
10725;SDS011;5414;59.782;16.378;2022-08-21T15:06:19;2.93;;;1.30;;
10725;SDS011;5414;59.782;16.378;2022-08-21T15:08:46;1.90;;;1.27;;
10725;SDS011;5414;59.782;16.378;2022-08-21T15:11:15;1.70;;;1.20;;
10725;SDS011;5414;59.782;16.378;2022-08-21T15:13:41;1.83;;;1.10;;
10725;SDS011;5414;59.782;16.378;2022-08-21T15:16:08;1.53;;;1.23;;
10725;SDS011;5414;59.782;16.378;2022-08-21T15:18:34;1.97;;;1.30;;
10725;SDS011;5414;59.782;16.378;2022-08-21T15:21:00;2.27;;;1.30;;
10725;SDS011;5414;59.782;16.378;2022-08-21T15:23:26;2.73;;;1.40;;
10725;SDS011;5414;59.782;16.378;2022-08-21T15:25:54;3.57;;;1.60;;
10725;SDS011;5414;59.782;16.378;2022-08-21T15:28:23;2.23;;;1.50;;
10725;SDS011;5414;59.782;16.378;2022-08-21T15:30:50;1.30;;;1.20;;
10725;SDS011;5414;59.782;16.378;2022-08-21T15:33:16;1.80;;;1.37;;
10725;SDS011;5414;59.782;16.378;2022-08-21T15:35:43;2.60;;;1.57;;
10725;SDS011;5414;59.782;16.378;2022-08-21T15:38:10;2.33;;;1.40;;
10725;SDS011;5414;59.782;16.378;2022-08-21T15:40:37;2.37;;;1.33;;
10725;SDS011;5414;59.782;16.378;2022-08-21T15:43:04;2.00;;;1.40;;
10725;SDS011;5414;59.782;16.378;2022-08-21T15:45:30;2.63;;;1.47;;
10725;SDS011;5414;59.782;16.378;2022-08-21T15:47:57;1.97;;;1.23;;
10725;SDS011;5414;59.782;16.378;2022-08-21T15:50:24;2.53;;;1.40;;
10725;SDS011;5414;59.782;16.378;2022-08-21T15:52:51;2.07;;;1.20;;
10725;SDS011;5414;59.782;16.378;2022-08-21T15:55:18;1.30;;;1.20;;
10725;SDS011;5414;59.782;16.378;2022-08-21T15:57:45;2.17;;;1.40;;
10725;SDS011;5414;59.782;16.378;2022-08-21T16:00:17;1.50;;;1.30;;
10725;SDS011;5414;59.782;16.378;2022-08-21T16:02:44;3.03;;;1.60;;
10725;SDS011;5414;59.782;16.378;2022-08-21T16:05:11;2.53;;;1.40;;
10725;SDS011;5414;59.782;16.378;2022-08-21T16:07:38;3.23;;;1.80;;
10725;SDS011;5414;59.782;16.378;2022-08-21T16:10:05;1.90;;;1.27;;
10725;SDS011;5414;59.782;16.378;2022-08-21T16:12:32;1.73;;;1.30;;
10725;SDS011;5414;59.782;16.378;2022-08-21T16:14:59;1.33;;;1.23;;
10725;SDS011;5414;59.782;16.378;2022-08-21T16:17:27;1.57;;;1.30;;
10725;SDS011;5414;59.782;16.378;2022-08-21T16:19:54;1.80;;;1.20;;
10725;SDS011;5414;59.782;16.378;2022-08-21T16:22:20;1.30;;;1.20;;
10725;SDS011;5414;59.782;16.378;2022-08-21T16:24:46;2.87;;;1.20;;
10725;SDS011;5414;59.782;16.378;2022-08-21T16:27:12;1.90;;;1.20;;
10725;SDS011;5414;59.782;16.378;2022-08-21T16:29:41;1.73;;;1.17;;